Time;durP1;ratioP1;P1;durP2;ratioP2;P2;SDS_P1;SDS_P2;PMS_P1;PMS_P2;Temp;Humidity;BMP_temperature;BMP_pressure;BME280_temperature;BME280_humidity;BME280_pressure;Samples;Min_cycle;Max_cycle;Signal;HPM_P1;HPM_P2
2021/03/25 08:13:07;;;;;;;14.60;5.67;;;11.10;99.90;;;;;;4003203;23;20790;-73
2021/03/25 08:15:39;;;;;;;12.47;5.37;;;11.10;99.90;;;;;;4925431;29;20224;-75
2021/03/25 08:18:36;;;;;;;11.40;5.50;;;11.20;99.90;;;;;;4925621;29;20216;-72
2021/03/25 08:21:15;;;;;;;15.60;5.27;;;11.30;99.90;;;;;;4934565;29;20228;-73
2021/03/25 08:24:06;;;;;;;8.43;4.27;;;11.60;99.90;;;;;;4934618;29;20212;-73
2021/03/25 08:26:45;;;;;;;7.50;4.03;;;11.80;99.90;;;;;;4934326;29;20271;-74
2021/03/25 08:29:18;;;;;;;12.40;4.00;;;11.60;99.90;;;;;;4933296;29;20659;-72
2021/03/25 08:31:58;;;;;;;7.07;3.70;;;11.50;99.90;;;;;;4934169;29;20205;-69
2021/03/25 08:34:47;;;;;;;7.80;3.87;;;11.40;99.90;;;;;;4934854;29;20244;-73
2021/03/25 08:37:41;;;;;;;8.90;3.93;;;11.40;99.90;;;;;;4934249;29;20217;-73
2021/03/25 08:40:16;;;;;;;9.43;3.40;;;11.20;99.90;;;;;;4933991;29;20284;-73
2021/03/25 08:42:48;;;;;;;8.90;3.53;;;11.10;99.90;;;;;;4934138;29;20221;-73
2021/03/25 08:45:24;;;;;;;7.07;2.87;;;11.10;99.90;;;;;;4934554;29;20209;-73
2021/03/25 08:47:59;;;;;;;9.53;3.00;;;11.00;99.90;;;;;;4933607;29;20259;-78
2021/03/25 08:50:50;;;;;;;4.80;2.57;;;11.00;99.90;;;;;;4934034;29;20240;-74
2021/03/25 08:53:28;;;;;;;7.33;3.40;;;11.00;99.90;;;;;;4930976;29;20595;-73
2021/03/25 08:55:58;;;;;;;6.07;3.10;;;11.00;99.90;;;;;;4933757;29;20212;-67
2021/03/25 08:58:29;;;;;;;6.60;2.40;;;11.30;99.90;;;;;;4934526;29;20220;-69
2021/03/25 09:01:02;;;;;;;5.77;2.63;;;11.50;99.90;;;;;;4933586;29;20225;-67
2021/03/25 09:03:33;;;;;;;8.43;2.93;;;11.70;99.90;;;;;;4933557;29;20208;-69
2021/03/25 09:06:05;;;;;;;4.93;2.67;;;11.90;99.90;;;;;;4934952;29;20201;-69
2021/03/25 09:08:34;;;;;;;8.47;3.00;;;12.20;99.90;;;;;;4935451;29;20256;-69
2021/03/25 09:11:02;;;;;;;6.33;2.77;;;12.10;99.90;;;;;;4935653;29;20235;-69
2021/03/25 09:13:32;;;;;;;5.73;2.30;;;12.00;99.90;;;;;;4935596;29;20353;-69
2021/03/25 09:16:10;;;;;;;4.93;2.57;;;12.10;99.90;;;;;;4935552;29;20549;-69
2021/03/25 09:18:42;;;;;;;6.80;2.67;;;12.40;99.90;;;;;;4935671;29;20212;-68
2021/03/25 09:21:12;;;;;;;5.43;2.70;;;12.40;99.90;;;;;;4935507;29;20228;-69
2021/03/25 09:23:46;;;;;;;5.93;3.07;;;12.20;99.90;;;;;;4935674;29;20217;-69
2021/03/25 09:26:46;;;;;;;5.47;3.07;;;12.20;99.90;;;;;;4935683;29;20240;-69
2021/03/25 09:29:14;;;;;;;7.10;2.63;;;12.20;99.90;;;;;;4933303;29;20216;-69
2021/03/25 09:32:02;;;;;;;7.27;2.90;;;12.40;99.90;;;;;;4935302;29;20213;-69
2021/03/25 09:34:43;;;;;;;7.97;3.40;;;12.60;99.90;;;;;;4935292;29;20237;-69
2021/03/25 09:37:18;;;;;;;4.33;2.27;;;12.50;99.90;;;;;;4935327;29;20217;-69
2021/03/25 09:40:02;;;;;;;6.13;3.17;;;12.40;99.90;;;;;;4935138;29;20228;-69
2021/03/25 09:42:28;;;;;;;5.70;2.87;;;12.50;99.90;;;;;;4935647;29;20213;-69
2021/03/25 09:44:55;;;;;;;4.97;2.50;;;12.70;99.90;;;;;;4935309;29;20690;-69
2021/03/25 09:47:28;;;;;;;6.53;2.57;;;12.90;99.90;;;;;;4935324;29;20205;-69
2021/03/25 09:50:15;;;;;;;6.10;2.90;;;12.90;99.90;;;;;;4935160;29;20538;-69
2021/03/25 09:52:45;;;;;;;5.97;2.50;;;12.90;99.90;;;;;;4935788;29;20268;-69
2021/03/25 09:55:23;;;;;;;3.83;2.30;;;12.90;99.90;;;;;;4935605;29;20264;-69
2021/03/25 09:57:50;;;;;;;5.03;2.57;;;13.00;99.90;;;;;;4935466;29;20664;-69
2021/03/25 10:01:05;;;;;;;6.30;2.80;;;12.80;99.90;;;;;;4934986;29;20235;-69
2021/03/25 10:04:06;;;;;;;5.93;2.60;;;12.80;99.90;;;;;;4935375;29;20224;-69
2021/03/25 10:06:50;;;;;;;6.00;2.20;;;12.70;99.90;;;;;;4932939;29;20205;-69
2021/03/25 10:09:17;;;;;;;6.67;2.53;;;12.80;99.90;;;;;;4939545;29;20213;-69
2021/03/25 10:11:51;;;;;;;4.37;2.57;;;12.90;99.90;;;;;;4938777;29;20212;-69
2021/03/25 10:14:44;;;;;;;5.83;2.67;;;13.00;99.90;;;;;;4938156;29;20236;-69
2021/03/25 10:17:43;;;;;;;7.57;2.63;;;12.90;99.90;;;;;;4938470;29;20563;-70
2021/03/25 10:20:29;;;;;;;7.03;2.90;;;13.20;99.90;;;;;;4938555;29;20232;-70
2021/03/25 10:22:56;;;;;;;5.40;2.87;;;13.50;99.90;;;;;;4938206;29;20675;-70
2021/03/25 10:25:28;;;;;;;5.07;2.97;;;13.60;99.90;;;;;;4938306;29;20675;-68
2021/03/25 10:27:59;;;;;;;7.83;2.90;;;13.60;99.90;;;;;;4938438;29;20299;-69
2021/03/25 10:30:29;;;;;;;4.10;2.23;;;13.70;99.90;;;;;;4938062;29;20229;-68
2021/03/25 10:32:57;;;;;;;7.10;2.63;;;13.60;99.90;;;;;;4938052;29;20749;-68
2021/03/25 10:35:27;;;;;;;7.30;3.20;;;13.40;99.90;;;;;;4937966;29;20665;-68
2021/03/25 10:37:58;;;;;;;6.27;2.83;;;13.60;99.90;;;;;;4938433;29;20215;-68
2021/03/25 10:40:35;;;;;;;5.77;2.90;;;13.80;99.90;;;;;;4937844;29;20233;-68
2021/03/25 10:43:04;;;;;;;5.70;3.60;;;13.70;99.90;;;;;;4937871;29;20209;-68
2021/03/25 10:45:46;;;;;;;7.77;4.00;;;13.50;99.90;;;;;;4937709;29;20216;-68
2021/03/25 10:48:20;;;;;;;5.33;3.03;;;13.60;99.90;;;;;;4937885;29;20632;-68
2021/03/25 10:50:50;;;;;;;5.23;3.20;;;13.90;99.90;;;;;;4937599;29;20224;-68
2021/03/25 10:53:21;;;;;;;5.33;3.07;;;14.10;99.90;;;;;;4937772;29;20237;-68
2021/03/25 10:55:50;;;;;;;6.57;2.97;;;14.10;99.90;;;;;;4937867;29;20213;-68
2021/03/25 10:58:24;;;;;;;6.70;3.40;;;13.90;99.90;;;;;;4937614;29;20215;-69
2021/03/25 11:01:00;;;;;;;6.03;3.20;;;14.00;99.90;;;;;;4937309;29;20299;-68
2021/03/25 11:03:31;;;;;;;5.37;2.97;;;14.10;99.90;;;;;;4937513;29;20216;-69
2021/03/25 11:05:59;;;;;;;5.83;3.13;;;14.00;99.90;;;;;;4937836;29;20213;-69
2021/03/25 11:08:33;;;;;;;5.37;3.13;;;14.10;99.90;;;;;;4937589;29;20280;-69
2021/03/25 11:11:02;;;;;;;3.63;2.60;;;14.10;99.90;;;;;;4937319;29;20280;-68
2021/03/25 11:13:30;;;;;;;5.63;2.87;;;14.40;99.90;;;;;;4936814;29;20303;-68
2021/03/25 11:15:59;;;;;;;5.53;2.70;;;14.50;99.90;;;;;;4936709;29;20212;-69
2021/03/25 11:18:30;;;;;;;6.10;2.73;;;14.70;99.90;;;;;;4936714;29;20569;-68
2021/03/25 11:20:57;;;;;;;5.67;2.80;;;14.90;99.90;;;;;;4936661;29;20232;-69
2021/03/25 11:23:26;;;;;;;4.17;2.60;;;15.10;99.90;;;;;;4936925;29;20216;-68
2021/03/25 11:25:56;;;;;;;4.20;2.30;;;15.10;99.90;;;;;;4934935;29;20212;-68
2021/03/25 11:28:22;;;;;;;3.73;2.37;;;15.00;99.90;;;;;;4935453;29;20205;-69
2021/03/25 11:30:51;;;;;;;4.70;2.50;;;15.00;99.90;;;;;;4936821;29;20236;-68
2021/03/25 11:33:23;;;;;;;5.60;2.70;;;15.10;99.90;;;;;;4936523;29;20695;-69
2021/03/25 11:35:49;;;;;;;4.83;2.20;;;15.00;99.90;;;;;;4936087;29;20568;-68
2021/03/25 11:38:27;;;;;;;4.33;2.27;;;15.10;99.90;;;;;;4936387;29;20205;-68
2021/03/25 11:40:57;;;;;;;6.27;2.90;;;14.90;99.90;;;;;;4936577;29;20228;-68
2021/03/25 11:43:37;;;;;;;4.67;2.70;;;14.90;99.90;;;;;;4937183;29;20224;-68
2021/03/25 11:46:03;;;;;;;6.33;3.00;;;14.70;99.90;;;;;;4936551;29;20235;-68
2021/03/25 11:48:32;;;;;;;5.20;2.73;;;14.80;99.90;;;;;;4936531;29;20220;-69
2021/03/25 11:51:22;;;;;;;5.43;2.80;;;15.00;99.90;;;;;;4936343;29;20232;-69
2021/03/25 11:53:50;;;;;;;7.20;2.87;;;15.30;99.90;;;;;;4935607;29;20719;-69
2021/03/25 11:56:25;;;;;;;6.77;2.97;;;15.30;99.90;;;;;;4936178;29;20298;-69
2021/03/25 11:58:57;;;;;;;4.70;2.97;;;15.20;99.90;;;;;;4935629;29;20212;-68
2021/03/25 12:01:26;;;;;;;4.40;2.70;;;15.10;99.90;;;;;;4934736;29;20599;-68
2021/03/25 12:03:55;;;;;;;5.77;2.87;;;15.10;99.90;;;;;;4936097;29;20213;-68
2021/03/25 12:06:24;;;;;;;6.13;3.47;;;15.30;99.90;;;;;;4935903;29;20212;-68
2021/03/25 12:09:09;;;;;;;5.47;3.20;;;15.20;99.90;;;;;;4936038;29;20681;-69
2021/03/25 12:11:38;;;;;;;10.87;2.93;;;15.00;99.90;;;;;;4936284;29;20209;-69
2021/03/25 12:14:05;;;;;;;5.00;3.00;;;15.20;99.90;;;;;;4935676;29;20648;-68
2021/03/25 12:16:33;;;;;;;6.23;2.50;;;15.40;99.90;;;;;;4936539;29;20218;-68
2021/03/25 12:19:00;;;;;;;4.13;2.20;;;15.60;99.90;;;;;;4936283;29;20272;-68
2021/03/25 12:21:29;;;;;;;7.10;2.53;;;15.60;99.90;;;;;;4936283;29;20726;-68
2021/03/25 12:23:57;;;;;;;4.33;2.37;;;15.50;99.90;;;;;;4936055;29;20209;-68
2021/03/25 12:26:24;;;;;;;6.87;2.20;;;15.10;99.90;;;;;;4935870;29;20205;-68
2021/03/25 12:28:52;;;;;;;4.43;2.30;;;14.90;99.90;;;;;;4935963;29;20213;-68
2021/03/25 12:31:20;;;;;;;4.17;2.30;;;14.90;99.90;;;;;;4935276;29;20229;-68
2021/03/25 12:33:47;;;;;;;4.80;2.13;;;15.00;99.90;;;;;;4936012;29;20703;-69
2021/03/25 12:36:14;;;;;;;3.67;2.30;;;14.80;99.90;;;;;;4935948;29;20680;-69
2021/03/25 12:38:41;;;;;;;6.07;2.17;;;15.00;99.90;;;;;;4935718;29;20212;-69
2021/03/25 12:41:07;;;;;;;3.43;2.20;;;15.10;99.90;;;;;;4935638;29;20240;-69
2021/03/25 12:43:35;;;;;;;3.50;2.30;;;15.00;99.90;;;;;;4935995;29;20217;-69
2021/03/25 12:46:05;;;;;;;5.03;2.27;;;15.00;99.90;;;;;;4935815;29;20209;-68
2021/03/25 12:48:33;;;;;;;4.40;2.20;;;15.00;99.90;;;;;;4935866;29;20216;-69
2021/03/25 12:51:00;;;;;;;3.83;2.40;;;15.00;99.90;;;;;;4935720;29;20264;-69
2021/03/25 12:53:30;;;;;;;7.67;2.33;;;15.20;99.90;;;;;;4935994;29;20220;-68
2021/03/25 12:55:57;;;;;;;5.80;2.70;;;15.20;99.90;;;;;;4935751;29;20256;-69
2021/03/25 12:58:26;;;;;;;5.23;2.63;;;15.20;99.90;;;;;;4935863;29;20204;-69
2021/03/25 13:00:56;;;;;;;4.13;2.47;;;15.30;99.90;;;;;;4935731;29;20637;-68
2021/03/25 13:03:23;;;;;;;3.87;2.17;;;15.40;99.90;;;;;;4935773;29;20223;-68
2021/03/25 13:05:50;;;;;;;3.73;2.20;;;15.40;99.90;;;;;;4935969;29;20223;-68
2021/03/25 13:08:18;;;;;;;8.27;3.00;;;15.20;99.90;;;;;;4935476;29;20295;-69
2021/03/25 13:10:44;;;;;;;5.50;2.13;;;15.20;99.90;;;;;;4935872;29;20235;-69
2021/03/25 13:13:10;;;;;;;4.40;2.23;;;15.00;99.90;;;;;;4935593;29;20229;-69
2021/03/25 13:15:37;;;;;;;8.73;3.30;;;14.80;99.90;;;;;;4935683;29;20212;-69
2021/03/25 13:18:03;;;;;;;3.97;2.63;;;14.80;99.90;;;;;;4935565;29;20212;-69
2021/03/25 13:20:31;;;;;;;6.03;2.70;;;14.70;99.90;;;;;;4935411;29;20233;-69
2021/03/25 13:22:58;;;;;;;4.47;2.60;;;14.50;99.90;;;;;;4935542;29;20219;-69
2021/03/25 13:25:26;;;;;;;6.10;2.83;;;14.50;99.90;;;;;;4935801;29;20632;-69
2021/03/25 13:27:53;;;;;;;5.23;2.70;;;14.30;99.90;;;;;;4935739;29;20213;-69
2021/03/25 13:30:19;;;;;;;5.53;2.73;;;14.20;99.90;;;;;;4935302;29;20233;-69
2021/03/25 13:32:46;;;;;;;3.77;2.10;;;14.10;99.90;;;;;;4935542;29;20281;-69
2021/03/25 13:35:13;;;;;;;4.93;2.50;;;14.00;99.90;;;;;;4935327;29;20241;-69
2021/03/25 13:37:40;;;;;;;5.10;2.70;;;14.10;99.90;;;;;;4935324;29;20205;-69
2021/03/25 13:40:09;;;;;;;8.63;2.90;;;14.00;99.90;;;;;;4935206;29;20707;-69
2021/03/25 13:42:36;;;;;;;4.83;3.00;;;14.00;99.90;;;;;;4937224;29;20204;-69
2021/03/25 13:45:02;;;;;;;5.27;2.70;;;14.20;99.90;;;;;;4934713;29;20223;-71
2021/03/25 13:47:29;;;;;;;5.27;3.10;;;14.40;99.90;;;;;;4937718;29;20239;-72
2021/03/25 13:49:55;;;;;;;7.63;3.23;;;14.80;99.90;;;;;;4937145;29;20236;-71
2021/03/25 13:52:21;;;;;;;4.67;3.33;;;14.70;99.90;;;;;;4937526;29;20212;-71
2021/03/25 13:54:48;;;;;;;7.07;3.23;;;14.80;99.90;;;;;;4937276;29;20703;-69
2021/03/25 13:57:15;;;;;;;7.60;3.50;;;14.70;99.90;;;;;;4937350;29;20623;-72
2021/03/25 13:59:41;;;;;;;7.13;3.40;;;15.00;99.90;;;;;;4936523;29;20628;-70
2021/03/25 14:02:08;;;;;;;5.50;3.07;;;15.00;99.90;;;;;;4937253;29;20213;-69
2021/03/25 14:04:34;;;;;;;5.77;2.60;;;15.10;99.90;;;;;;4937067;29;20216;-68
2021/03/25 14:07:00;;;;;;;4.90;3.00;;;15.00;99.90;;;;;;4936779;29;20221;-73
2021/03/25 14:09:26;;;;;;;5.17;2.70;;;14.90;99.90;;;;;;4938133;29;20208;-73
2021/03/25 14:11:53;;;;;;;6.77;3.47;;;14.90;99.90;;;;;;4937340;29;20208;-72
2021/03/25 14:14:20;;;;;;;5.97;2.80;;;14.70;99.90;;;;;;4936262;29;20239;-69
2021/03/25 14:16:47;;;;;;;4.90;3.07;;;14.80;99.90;;;;;;4937235;29;20698;-72
2021/03/25 14:19:13;;;;;;;5.13;3.43;;;14.80;99.90;;;;;;4937142;29;20817;-70
2021/03/25 14:21:39;;;;;;;5.80;3.53;;;14.90;99.90;;;;;;4936656;29;20213;-70
2021/03/25 14:24:06;;;;;;;6.50;2.70;;;14.90;99.90;;;;;;4936494;29;20213;-73
2021/03/25 14:26:33;;;;;;;7.40;3.60;;;14.90;99.90;;;;;;4937013;29;20208;-73
2021/03/25 14:29:02;;;;;;;5.63;3.03;;;15.00;99.90;;;;;;4936560;29;20209;-70
2021/03/25 14:31:29;;;;;;;6.50;3.40;;;15.10;99.90;;;;;;4937089;29;20236;-72
2021/03/25 14:33:55;;;;;;;5.43;3.57;;;15.00;99.90;;;;;;4936376;29;20288;-70
2021/03/25 14:36:22;;;;;;;5.67;3.20;;;14.90;99.90;;;;;;4936668;29;20264;-72
2021/03/25 14:38:48;;;;;;;7.10;3.47;;;14.70;99.90;;;;;;4936491;29;20205;-72
2021/03/25 14:41:14;;;;;;;8.00;3.27;;;14.50;99.90;;;;;;4936154;29;20616;-72
2021/03/25 14:43:41;;;;;;;3.87;2.90;;;14.60;99.90;;;;;;4936520;29;20268;-71
2021/03/25 14:46:08;;;;;;;6.10;2.77;;;14.70;99.90;;;;;;4936649;29;20563;-71
2021/03/25 14:48:35;;;;;;;6.80;3.10;;;14.80;99.90;;;;;;4933385;29;20208;-72
2021/03/25 14:51:02;;;;;;;8.03;2.63;;;14.90;99.90;;;;;;4936385;29;20233;-72
2021/03/25 14:53:28;;;;;;;4.90;2.90;;;14.90;99.90;;;;;;4935329;29;20235;-71
2021/03/25 14:55:55;;;;;;;5.70;3.17;;;14.90;99.90;;;;;;4935791;29;20209;-71
2021/03/25 14:58:21;;;;;;;5.10;2.90;;;14.80;99.90;;;;;;4936239;29;20204;-71
2021/03/25 15:00:48;;;;;;;7.77;2.60;;;14.60;99.90;;;;;;4936101;29;20241;-71
2021/03/25 15:03:17;;;;;;;6.23;3.20;;;14.30;99.90;;;;;;4935479;29;20750;-71
2021/03/25 15:05:44;;;;;;;7.77;2.67;;;14.20;99.90;;;;;;4935955;29;20213;-72
2021/03/25 15:08:11;;;;;;;3.57;2.50;;;14.30;99.90;;;;;;4935942;29;20267;-69
2021/03/25 15:10:39;;;;;;;5.73;2.63;;;14.30;99.90;;;;;;4935363;29;20228;-71
2021/03/25 15:13:06;;;;;;;6.93;2.70;;;14.30;99.90;;;;;;4936362;29;20220;-72
2021/03/25 15:15:33;;;;;;;4.07;2.90;;;14.30;99.90;;;;;;4935474;29;20604;-73
2021/03/25 15:17:59;;;;;;;3.80;2.60;;;14.40;99.90;;;;;;4935340;29;20242;-73
2021/03/25 15:20:28;;;;;;;6.60;2.83;;;14.50;99.90;;;;;;4935889;29;20232;-72
2021/03/25 15:22:57;;;;;;;4.17;2.63;;;14.50;99.90;;;;;;4935807;29;20213;-72
2021/03/25 15:25:25;;;;;;;5.90;2.60;;;14.30;99.90;;;;;;4935551;29;20213;-72
2021/03/25 15:27:52;;;;;;;5.83;3.30;;;14.30;99.90;;;;;;4935674;29;20617;-69
2021/03/25 15:30:23;;;;;;;5.07;2.30;;;14.40;99.90;;;;;;4935975;29;20224;-71
2021/03/25 15:32:49;;;;;;;3.83;2.50;;;14.20;99.90;;;;;;4935300;29;20216;-70
2021/03/25 15:35:23;;;;;;;5.27;2.70;;;14.20;99.90;;;;;;4935555;29;20237;-70
2021/03/25 15:37:50;;;;;;;5.23;2.77;;;14.20;99.90;;;;;;4935859;29;20212;-70
2021/03/25 15:40:18;;;;;;;5.57;2.80;;;14.20;99.90;;;;;;4934976;29;20232;-70
2021/03/25 15:42:44;;;;;;;5.93;3.17;;;14.40;99.90;;;;;;4935717;29;20714;-71
2021/03/25 15:45:14;;;;;;;5.87;3.10;;;14.40;99.90;;;;;;4935429;29;20220;-69
2021/03/25 15:47:40;;;;;;;6.60;3.00;;;14.40;99.90;;;;;;4936570;29;20212;-68
2021/03/25 15:50:08;;;;;;;5.50;3.10;;;14.40;99.90;;;;;;4936912;29;20232;-68
2021/03/25 15:52:34;;;;;;;5.63;2.93;;;14.30;99.90;;;;;;4936329;29;20217;-68
2021/03/25 15:55:01;;;;;;;5.23;3.23;;;14.30;99.90;;;;;;4936175;29;20236;-68
2021/03/25 15:57:27;;;;;;;6.20;3.17;;;14.30;99.90;;;;;;4936622;29;20212;-68
2021/03/25 15:59:53;;;;;;;6.67;2.90;;;14.40;99.90;;;;;;4936513;29;20231;-68
2021/03/25 16:02:20;;;;;;;7.63;2.87;;;14.30;99.90;;;;;;4936576;29;20213;-68
2021/03/25 16:04:46;;;;;;;8.20;3.30;;;14.30;99.90;;;;;;4936026;29;20212;-68
2021/03/25 16:07:12;;;;;;;5.67;3.20;;;14.30;99.90;;;;;;4936331;29;20568;-68
2021/03/25 16:09:40;;;;;;;5.63;2.90;;;14.50;99.90;;;;;;4936299;29;20231;-68
2021/03/25 16:12:09;;;;;;;5.43;2.67;;;14.40;99.90;;;;;;4936476;29;20268;-68
2021/03/25 16:14:35;;;;;;;4.87;2.80;;;14.40;99.90;;;;;;4935861;29;20704;-68
2021/03/25 16:17:02;;;;;;;7.47;2.87;;;14.50;99.90;;;;;;4936207;29;20616;-68
2021/03/25 16:19:28;;;;;;;6.07;2.87;;;14.30;99.90;;;;;;4936357;29;20302;-68
2021/03/25 16:21:54;;;;;;;4.60;2.67;;;14.30;99.90;;;;;;4936218;29;20256;-68
2021/03/25 16:24:21;;;;;;;4.80;2.80;;;14.40;99.90;;;;;;4935907;29;20303;-68
2021/03/25 16:26:48;;;;;;;6.13;3.00;;;14.30;99.90;;;;;;4936066;29;20291;-68
2021/03/25 16:29:15;;;;;;;9.13;2.60;;;14.00;99.90;;;;;;4936014;29;20213;-68
2021/03/25 16:31:41;;;;;;;7.40;2.63;;;13.90;99.90;;;;;;4935978;29;20283;-68
2021/03/25 16:34:07;;;;;;;3.87;2.83;;;13.90;99.90;;;;;;4936078;29;20240;-68
2021/03/25 16:36:33;;;;;;;5.30;2.60;;;13.90;99.90;;;;;;4935964;29;20233;-68
2021/03/25 16:39:00;;;;;;;5.97;2.80;;;14.00;99.90;;;;;;4935986;29;20212;-68
2021/03/25 16:41:26;;;;;;;3.87;2.50;;;14.00;99.90;;;;;;4936183;29;20236;-68
2021/03/25 16:43:54;;;;;;;7.27;2.93;;;14.00;99.90;;;;;;4936169;29;20224;-68
2021/03/25 16:46:26;;;;;;;5.03;2.70;;;13.90;99.90;;;;;;4936153;29;20291;-68
2021/03/25 16:48:52;;;;;;;6.33;2.77;;;13.80;99.90;;;;;;4936136;29;20264;-68
2021/03/25 16:51:18;;;;;;;4.40;2.60;;;13.70;99.90;;;;;;4935955;29;20235;-68
2021/03/25 16:53:45;;;;;;;5.43;2.30;;;13.60;99.90;;;;;;4936182;29;20223;-68
2021/03/25 16:56:11;;;;;;;7.30;2.73;;;13.70;99.90;;;;;;4936040;29;20329;-68
2021/03/25 16:58:38;;;;;;;6.03;2.50;;;13.60;99.90;;;;;;4936018;29;20216;-69
2021/03/25 17:01:05;;;;;;;7.10;2.80;;;13.60;99.90;;;;;;4935563;29;20592;-68
2021/03/25 17:03:32;;;;;;;5.33;2.60;;;13.30;99.90;;;;;;4935767;29;20219;-68
2021/03/25 17:05:58;;;;;;;6.23;2.83;;;13.20;99.90;;;;;;4935580;29;20707;-68
2021/03/25 17:08:26;;;;;;;6.30;3.10;;;13.10;99.90;;;;;;4936035;29;20212;-68
2021/03/25 17:10:53;;;;;;;5.13;2.30;;;13.00;99.90;;;;;;4935795;29;20813;-68
2021/03/25 17:13:22;;;;;;;5.47;2.20;;;13.00;99.90;;;;;;4935661;29;20679;-69
2021/03/25 17:15:50;;;;;;;5.83;2.80;;;13.00;99.90;;;;;;4935430;29;20240;-68
2021/03/25 17:18:16;;;;;;;5.73;2.83;;;13.10;99.90;;;;;;4938382;29;20224;-68
2021/03/25 17:20:45;;;;;;;5.17;2.80;;;13.00;99.90;;;;;;4939809;29;20291;-68
2021/03/25 17:23:13;;;;;;;6.13;2.70;;;12.90;99.90;;;;;;4939419;29;20671;-68
2021/03/25 17:25:41;;;;;;;5.17;2.80;;;12.70;99.90;;;;;;4939446;29;20624;-68
2021/03/25 17:28:10;;;;;;;5.37;3.07;;;12.60;99.90;;;;;;4939390;29;20307;-68
2021/03/25 17:30:37;;;;;;;7.33;2.87;;;12.50;99.90;;;;;;4939262;29;20382;-68
2021/03/25 17:33:06;;;;;;;5.07;2.90;;;12.50;99.90;;;;;;4939494;29;20223;-68
2021/03/25 17:35:34;;;;;;;5.20;3.10;;;12.50;99.90;;;;;;4939077;29;20323;-68
2021/03/25 17:38:01;;;;;;;5.07;2.77;;;12.50;99.90;;;;;;4935399;29;20271;-68
2021/03/25 17:40:28;;;;;;;5.77;3.03;;;12.40;99.90;;;;;;4938351;29;20228;-69
2021/03/25 17:42:54;;;;;;;5.70;3.20;;;12.40;99.90;;;;;;4938808;29;20216;-69
2021/03/25 17:45:23;;;;;;;8.63;3.00;;;12.30;99.90;;;;;;4938900;29;20212;-70
2021/03/25 17:47:49;;;;;;;5.97;2.93;;;12.10;99.90;;;;;;4938441;29;20303;-69
2021/03/25 17:50:16;;;;;;;4.93;2.80;;;12.20;99.90;;;;;;4938937;29;20587;-69
2021/03/25 17:52:42;;;;;;;6.87;3.10;;;12.10;99.90;;;;;;4939069;29;20219;-70
2021/03/25 17:55:11;;;;;;;5.93;3.23;;;12.10;99.90;;;;;;4938841;29;20247;-68
2021/03/25 17:57:37;;;;;;;7.07;3.60;;;12.10;99.90;;;;;;4938652;29;20209;-69
2021/03/25 18:00:07;;;;;;;5.80;3.30;;;12.10;99.90;;;;;;4938004;29;20229;-69
2021/03/25 18:02:34;;;;;;;5.07;3.13;;;12.10;99.90;;;;;;4938814;29;20220;-69
2021/03/25 18:05:00;;;;;;;5.20;2.93;;;12.00;99.90;;;;;;4939011;29;20211;-69
2021/03/25 18:07:26;;;;;;;6.57;2.87;;;11.90;99.90;;;;;;4938756;29;20556;-69
2021/03/25 18:09:52;;;;;;;4.33;2.43;;;11.90;99.90;;;;;;4938015;29;20229;-69
2021/03/25 18:12:20;;;;;;;3.67;2.40;;;11.90;99.90;;;;;;4938047;29;20568;-69
2021/03/25 18:14:46;;;;;;;3.80;2.50;;;11.80;99.90;;;;;;4938808;29;20232;-69
2021/03/25 18:17:14;;;;;;;5.60;3.00;;;11.80;99.90;;;;;;4938361;29;20209;-71
2021/03/25 18:19:40;;;;;;;6.33;3.00;;;11.80;99.90;;;;;;4938222;29;20233;-70
2021/03/25 18:22:07;;;;;;;5.33;2.80;;;11.70;99.90;;;;;;4938279;29;20608;-69
2021/03/25 18:24:33;;;;;;;6.97;2.83;;;11.70;99.90;;;;;;4938361;29;20216;-70
2021/03/25 18:26:59;;;;;;;5.03;2.87;;;11.70;99.90;;;;;;4938197;29;20243;-69
2021/03/25 18:29:26;;;;;;;6.13;2.40;;;11.70;99.90;;;;;;4937476;29;20221;-70
2021/03/25 18:31:53;;;;;;;5.00;2.50;;;11.80;99.90;;;;;;4937396;29;20217;-70
2021/03/25 18:34:19;;;;;;;4.70;2.80;;;11.90;99.90;;;;;;4937171;29;20237;-70
2021/03/25 18:36:45;;;;;;;6.57;3.20;;;11.90;99.90;;;;;;4937913;29;20212;-70
2021/03/25 18:39:12;;;;;;;5.93;3.00;;;11.90;99.90;;;;;;4937940;29;20215;-70
2021/03/25 18:41:38;;;;;;;8.27;3.17;;;11.90;99.90;;;;;;4937966;29;20252;-70
2021/03/25 18:44:05;;;;;;;6.13;2.70;;;11.90;99.90;;;;;;4938017;29;20216;-70
2021/03/25 18:46:32;;;;;;;6.37;3.20;;;11.80;99.90;;;;;;4937980;29;20612;-70
2021/03/25 18:48:58;;;;;;;6.50;3.20;;;11.70;99.90;;;;;;4937545;29;20572;-70
2021/03/25 18:51:29;;;;;;;6.90;3.03;;;11.60;99.90;;;;;;4937708;29;20712;-70
2021/03/25 18:53:58;;;;;;;6.43;3.00;;;11.70;99.90;;;;;;4937708;29;20561;-70
2021/03/25 18:56:25;;;;;;;7.33;3.07;;;11.70;99.90;;;;;;4937966;29;20252;-70
2021/03/25 18:58:52;;;;;;;6.57;3.20;;;11.60;99.90;;;;;;4936966;29;20549;-70
2021/03/25 19:01:18;;;;;;;6.47;3.03;;;11.50;99.90;;;;;;4937276;29;20304;-70
2021/03/25 19:03:45;;;;;;;5.57;2.70;;;11.40;99.90;;;;;;4937292;29;20212;-70
2021/03/25 19:06:14;;;;;;;5.03;3.00;;;11.30;99.90;;;;;;4937343;29;20680;-70
2021/03/25 19:08:41;;;;;;;8.20;3.87;;;11.20;99.90;;;;;;4937322;29;20542;-70
2021/03/25 19:11:12;;;;;;;6.53;3.00;;;11.30;99.90;;;;;;4938079;29;20237;-70
2021/03/25 19:13:39;;;;;;;5.97;3.17;;;11.20;99.90;;;;;;4936890;29;20252;-70
2021/03/25 19:16:06;;;;;;;7.27;3.13;;;11.10;99.90;;;;;;4948932;29;20232;-70
2021/03/25 19:18:32;;;;;;;5.43;3.13;;;11.10;99.90;;;;;;4955107;29;20615;-70
2021/03/25 19:21:00;;;;;;;6.77;3.60;;;11.00;99.90;;;;;;4954865;28;20278;-70
2021/03/25 19:23:26;;;;;;;6.00;2.90;;;11.00;99.90;;;;;;4954486;29;20215;-70
2021/03/25 19:25:53;;;;;;;6.00;3.50;;;11.10;99.90;;;;;;4954459;29;20213;-70
2021/03/25 19:28:21;;;;;;;6.67;3.17;;;11.00;99.90;;;;;;4954824;29;20615;-70
2021/03/25 19:30:47;;;;;;;4.53;3.03;;;11.00;99.90;;;;;;4955265;28;20220;-70
2021/03/25 19:33:17;;;;;;;5.23;3.00;;;10.90;99.90;;;;;;4955225;29;20200;-70
2021/03/25 19:35:46;;;;;;;8.90;3.33;;;10.80;99.90;;;;;;4953978;29;20232;-70
2021/03/25 19:38:15;;;;;;;5.43;3.17;;;10.70;99.90;;;;;;4953796;29;20216;-69
2021/03/25 19:40:44;;;;;;;5.47;2.73;;;10.70;99.90;;;;;;4932759;29;20228;-69
2021/03/25 19:43:13;;;;;;;8.87;3.43;;;10.70;99.90;;;;;;4936289;29;20217;-69
2021/03/25 19:45:40;;;;;;;10.30;3.20;;;10.60;99.90;;;;;;4936667;29;20201;-70
2021/03/25 19:48:08;;;;;;;6.40;3.47;;;10.60;99.90;;;;;;4936370;29;20208;-70
2021/03/25 19:50:35;;;;;;;7.40;3.50;;;10.50;99.90;;;;;;4936135;29;20239;-69
2021/03/25 19:53:01;;;;;;;7.97;4.10;;;10.50;99.90;;;;;;4936339;29;20703;-69
2021/03/25 19:55:30;;;;;;;10.30;3.63;;;10.50;99.90;;;;;;4936246;29;20266;-70
2021/03/25 19:57:57;;;;;;;7.70;4.00;;;10.40;99.90;;;;;;4928247;29;20205;-69
2021/03/25 20:00:24;;;;;;;6.53;3.50;;;10.40;99.90;;;;;;4917187;29;20260;-69
2021/03/25 20:02:50;;;;;;;12.07;3.90;;;10.40;99.90;;;;;;4917155;29;20213;-69
2021/03/25 20:05:20;;;;;;;6.50;3.40;;;10.40;99.90;;;;;;4917718;29;20205;-69
2021/03/25 20:07:47;;;;;;;9.03;3.63;;;10.30;99.90;;;;;;4917474;29;20684;-69
2021/03/25 20:10:13;;;;;;;8.93;4.00;;;10.30;99.90;;;;;;4917956;29;20233;-69
2021/03/25 20:12:40;;;;;;;8.53;3.43;;;10.30;99.90;;;;;;4917152;29;20696;-69
2021/03/25 20:15:09;;;;;;;9.33;4.37;;;10.30;99.90;;;;;;4917163;29;20244;-69
2021/03/25 20:17:36;;;;;;;7.90;4.07;;;10.20;99.90;;;;;;4917097;29;20210;-69
2021/03/25 20:20:04;;;;;;;7.90;3.87;;;10.10;99.90;;;;;;4917170;29;20225;-69
2021/03/25 20:22:30;;;;;;;6.17;3.53;;;10.10;99.90;;;;;;4917189;29;20273;-70
2021/03/25 20:24:56;;;;;;;9.37;3.87;;;10.00;99.90;;;;;;4917567;29;20213;-69
2021/03/25 20:27:22;;;;;;;7.57;3.67;;;10.00;99.90;;;;;;4917218;29;20232;-69
2021/03/25 20:29:49;;;;;;;8.07;3.47;;;10.00;99.90;;;;;;4916569;29;20775;-69
2021/03/25 20:32:16;;;;;;;6.43;3.90;;;9.90;99.90;;;;;;4916922;29;20688;-68
2021/03/25 20:34:43;;;;;;;8.57;4.40;;;9.90;99.90;;;;;;4917233;29;20245;-69
2021/03/25 20:37:09;;;;;;;9.53;3.77;;;9.80;99.90;;;;;;4917328;29;20206;-69
2021/03/25 20:39:36;;;;;;;6.97;4.07;;;9.70;99.90;;;;;;4916964;29;20225;-69
2021/03/25 20:42:03;;;;;;;8.50;4.13;;;9.60;99.90;;;;;;4917084;29;20205;-69
2021/03/25 20:44:29;;;;;;;7.73;3.73;;;9.50;99.90;;;;;;4916694;29;20585;-69
2021/03/25 20:46:56;;;;;;;6.13;3.97;;;9.50;99.90;;;;;;4916993;29;20213;-69
2021/03/25 20:49:22;;;;;;;9.27;4.07;;;9.50;99.90;;;;;;4916901;29;20206;-69
2021/03/25 20:51:49;;;;;;;7.30;3.90;;;9.30;99.90;;;;;;4916208;29;20209;-69
2021/03/25 20:54:15;;;;;;;6.87;4.13;;;9.30;99.90;;;;;;4916738;29;20286;-68
2021/03/25 20:56:41;;;;;;;7.60;3.47;;;9.20;99.90;;;;;;4916460;29;20608;-69
2021/03/25 20:59:07;;;;;;;7.63;4.03;;;9.20;99.90;;;;;;4916876;29;20213;-70
2021/03/25 21:01:34;;;;;;;7.60;3.53;;;9.20;99.90;;;;;;4916971;29;20320;-70
2021/03/25 21:04:01;;;;;;;9.80;4.47;;;9.10;99.90;;;;;;4916909;29;20220;-70
2021/03/25 21:06:28;;;;;;;8.50;4.40;;;9.10;99.90;;;;;;4917058;29;20213;-70
2021/03/25 21:08:54;;;;;;;8.37;4.47;;;9.10;99.90;;;;;;4916741;29;20569;-70
2021/03/25 21:11:20;;;;;;;8.70;3.77;;;9.00;99.90;;;;;;4916585;29;20569;-70